Time;durP1;ratioP1;P1;durP2;ratioP2;P2;SDS_P1;SDS_P2;PMS_P1;PMS_P2;Temp;Humidity;BMP_temperature;BMP_pressure;BME280_temperature;BME280_humidity;BME280_pressure;Samples;Min_cycle;Max_cycle;Signal;HPM_P1;HPM_P2
2023/05/31 00:04:39;;;;;;;;;;;15.20;94.70;;;;;;5040501;28;19943;-68
2023/05/31 00:07:21;;;;;;;;;;;15.10;94.90;;;;;;5040948;28;19984;-68
2023/05/31 00:13:04;;;;;;;;;;;15.00;95.30;;;;;;5020564;28;19928;-68
2023/05/31 00:15:41;;;;;;;;;;;14.90;95.70;;;;;;5042240;28;19935;-69
2023/05/31 00:18:21;;;;;;;;;;;14.90;95.90;;;;;;5042238;28;20117;-68
2023/05/31 00:23:57;;;;;;;;;;;14.70;95.80;;;;;;5028961;28;20017;-69
2023/05/31 00:29:58;;;;;;;;;;;14.50;96.10;;;;;;5043170;28;19984;-69
2023/05/31 00:32:56;;;;;;;;;;;14.50;96.50;;;;;;5034943;28;19956;-68
2023/05/31 00:41:30;;;;;;;;;;;14.30;96.80;;;;;;5037576;28;19980;-68
2023/05/31 00:47:00;;;;;;;;;;;14.20;97.10;;;;;;5042271;28;19952;-69
2023/05/31 00:52:29;;;;;;;;;;;14.00;97.70;;;;;;5041499;28;19976;-68
2023/05/31 00:55:04;;;;;;;;;;;14.00;97.90;;;;;;5042168;28;20107;-68
2023/05/31 00:57:36;;;;;;;;;;;13.90;98.10;;;;;;5040312;28;20221;-68
2023/05/31 01:00:29;;;;;;;;;;;13.90;98.30;;;;;;5041524;28;19928;-68
2023/05/31 01:06:00;;;;;;;;;;;13.70;98.90;;;;;;5040989;28;19929;-68
2023/05/31 01:09:03;;;;;;;;;;;13.70;99.30;;;;;;5042262;28;19921;-68
2023/05/31 01:20:47;;;;;;;;;;;13.50;99.90;;;;;;5042250;28;19975;-68
2023/05/31 01:23:34;;;;;;;;;;;13.40;99.90;;;;;;5037770;28;20180;-70
2023/05/31 01:26:17;;;;;;;;;;;13.30;99.90;;;;;;5042119;28;19968;-68
2023/05/31 01:29:04;;;;;;;;;;;13.20;99.90;;;;;;5037396;28;19929;-68
2023/05/31 01:32:13;;;;;;;;;;;13.20;99.90;;;;;;5040537;28;19929;-68
2023/05/31 01:34:56;;;;;;;;;;;13.20;99.90;;;;;;5040417;28;19929;-68
2023/05/31 01:37:46;;;;;;;;;;;13.20;99.90;;;;;;5036032;28;19936;-69
2023/05/31 01:41:04;;;;;;;;;;;13.10;99.90;;;;;;5039610;28;19929;-69
2023/05/31 01:43:48;;;;;;;;;;;13.10;99.90;;;;;;5040370;28;19921;-68
2023/05/31 01:54:59;;;;;;;;;;;12.90;99.90;;;;;;5049942;28;19981;-68
2023/05/31 02:00:19;;;;;;;;;;;12.80;99.90;;;;;;4985265;28;19922;-68
2023/05/31 02:03:16;;;;;;;;;;;12.80;99.90;;;;;;4984521;28;19953;-68
2023/05/31 02:06:12;;;;;;;;;;;12.70;99.90;;;;;;4965453;28;20040;-68
2023/05/31 02:18:46;;;;;;;;;;;12.60;99.90;;;;;;5001738;28;19961;-68
2023/05/31 02:21:37;;;;;;;;;;;12.50;99.90;;;;;;4996524;28;19922;-68
2023/05/31 02:38:42;;;;;;;;;;;12.20;99.90;;;;;;5064055;28;19996;-67
2023/05/31 02:55:52;;;;;;;;;;;11.90;99.90;;;;;;5044308;28;19921;-68
2023/05/31 03:08:15;;;;;;;;;;;11.90;99.90;;;;;;5043437;28;19921;-68
2023/05/31 03:17:12;;;;;;;;;;;11.90;99.90;;;;;;5022224;28;19933;-68
2023/05/31 03:20:01;;;;;;;;;;;11.80;99.90;;;;;;5043099;28;19974;-69
2023/05/31 03:22:31;;;;;;;;;;;11.80;99.90;;;;;;5064611;28;19927;-68
2023/05/31 03:27:54;;;;;;;;;;;11.70;99.90;;;;;;5050709;28;19933;-68
2023/05/31 03:30:47;;;;;;;;;;;11.70;99.90;;;;;;5044440;28;19963;-69
2023/05/31 03:33:26;;;;;;;;;;;11.70;99.90;;;;;;5042280;28;19921;-68
2023/05/31 03:36:27;;;;;;;;;;;11.70;99.90;;;;;;5026861;28;19984;-68
2023/05/31 03:39:18;;;;;;;;;;;11.70;99.90;;;;;;5042744;28;19975;-68
2023/05/31 03:53:48;;;;;;;;;;;11.60;99.90;;;;;;5043515;28;19921;-68
2023/05/31 03:56:27;;;;;;;;;;;11.60;99.90;;;;;;5027595;28;20040;-68
2023/05/31 03:59:01;;;;;;;;;;;11.60;99.90;;;;;;5043959;28;20141;-68
2023/05/31 04:01:41;;;;;;;;;;;11.60;99.90;;;;;;5042664;28;19921;-68
2023/05/31 04:24:24;;;;;;;;;;;11.70;99.90;;;;;;5035909;28;19956;-68
2023/05/31 04:27:18;;;;;;;;;;;11.80;99.90;;;;;;5040073;28;19928;-69
2023/05/31 04:35:28;;;;;;;;;;;12.10;99.90;;;;;;5027328;28;19936;-69
2023/05/31 04:38:16;;;;;;;;;;;12.20;99.90;;;;;;5042684;28;19967;-71
2023/05/31 04:46:59;;;;;;;;;;;12.50;99.90;;;;;;5042915;28;19924;-69
2023/05/31 04:49:45;;;;;;;;;;;12.70;99.90;;;;;;5027186;28;19921;-68
2023/05/31 05:03:51;;;;;;;;;;;13.10;99.90;;;;;;5041831;28;19921;-68
2023/05/31 05:09:59;;;;;;;;;;;13.30;99.90;;;;;;5042176;28;19929;-68
2023/05/31 05:12:35;;;;;;;;;;;13.40;99.90;;;;;;5043170;28;19983;-68
2023/05/31 05:18:12;;;;;;;;;;;13.70;99.90;;;;;;5037044;28;19921;-68
2023/05/31 05:20:43;;;;;;;;;;;13.80;99.90;;;;;;5042832;28;20289;-68
2023/05/31 05:23:28;;;;;;;;;;;13.80;99.90;;;;;;5025362;28;19928;-71
2023/05/31 05:29:12;;;;;;;;;;;14.00;99.90;;;;;;5039504;28;19925;-69
2023/05/31 05:32:11;;;;;;;;;;;14.10;99.90;;;;;;5027926;28;19964;-68
2023/05/31 05:35:11;;;;;;;;;;;14.20;99.90;;;;;;5027040;28;19944;-72
2023/05/31 05:43:30;;;;;;;;;;;14.50;99.90;;;;;;5047257;28;20129;-66
2023/05/31 05:46:13;;;;;;;;;;;14.50;99.90;;;;;;5043350;28;20679;-68
2023/05/31 05:49:02;;;;;;;;;;;14.50;99.90;;;;;;5026369;28;19921;-69
2023/05/31 05:54:55;;;;;;;;;;;14.60;99.90;;;;;;5043172;28;19925;-69
2023/05/31 06:06:58;;;;;;;;;;;15.00;99.90;;;;;;5045220;28;20000;-69
2023/05/31 06:15:16;;;;;;;;;;;15.00;99.90;;;;;;5031890;28;19993;-68
2023/05/31 06:26:27;;;;;;;;;;;15.10;99.90;;;;;;5042367;28;19921;-68
2023/05/31 06:29:16;;;;;;;;;;;15.20;99.90;;;;;;5045290;28;19968;-69
2023/05/31 06:32:10;;;;;;;;;;;15.30;99.90;;;;;;5042235;28;19968;-69
2023/05/31 06:44:22;;;;;;;;;;;15.70;99.90;;;;;;5041517;28;19921;-69
2023/05/31 06:49:53;;;;;;;;;;;15.70;99.90;;;;;;5043450;28;20156;-68
2023/05/31 06:52:24;;;;;;;;;;;15.70;99.90;;;;;;5044261;28;19952;-68
2023/05/31 06:55:01;;;;;;;;;;;15.80;99.90;;;;;;5043080;28;19929;-71
2023/05/31 07:18:56;;;;;;;;;;;16.70;99.90;;;;;;5043671;28;19988;-69
2023/05/31 07:27:26;;;;;;;;;;;16.90;99.90;;;;;;5043178;28;20377;-68
2023/05/31 07:53:09;;;;;;;;;;;17.90;99.90;;;;;;5040208;28;19929;-68
2023/05/31 08:02:24;;;;;;;;;;;18.10;99.90;;;;;;5020794;28;19930;-68
2023/05/31 08:05:17;;;;;;;;;;;18.20;99.90;;;;;;5024609;28;19957;-69
2023/05/31 08:14:12;;;;;;;;;;;18.40;99.90;;;;;;5043322;28;20205;-69
2023/05/31 08:19:33;;;;;;;;;;;18.50;99.90;;;;;;5042668;28;19980;-68
2023/05/31 08:30:39;;;;;;;;;;;18.80;99.70;;;;;;5042348;28;19980;-69
2023/05/31 08:33:28;;;;;;;;;;;18.90;99.90;;;;;;5041440;28;20121;-69
2023/05/31 08:45:46;;;;;;;;;;;19.50;98.20;;;;;;5039178;28;19980;-69
2023/05/31 09:03:10;;;;;;;;;;;19.90;95.30;;;;;;5029483;28;19980;-69
2023/05/31 09:06:02;;;;;;;;;;;20.00;93.10;;;;;;5046757;28;19952;-69
2023/05/31 09:11:54;;;;;;;;;;;20.00;93.40;;;;;;5044783;28;19960;-69
2023/05/31 09:14:49;;;;;;;;;;;20.00;93.40;;;;;;5045363;28;19968;-69
2023/05/31 09:20:09;;;;;;;;;;;20.20;92.40;;;;;;5037425;28;19921;-69
2023/05/31 09:29:09;;;;;;;;;;;20.30;91.90;;;;;;5041972;28;19921;-69
2023/05/31 09:31:47;;;;;;;;;;;20.30;91.60;;;;;;5045429;28;19921;-68
2023/05/31 09:34:41;;;;;;;;;;;20.40;92.00;;;;;;5045399;28;19956;-68
2023/05/31 09:37:12;;;;;;;;;;;20.50;91.90;;;;;;5026992;28;19929;-69
2023/05/31 09:39:58;;;;;;;;;;;20.60;92.10;;;;;;5043836;28;19956;-69
2023/05/31 09:45:20;;;;;;;;;;;20.70;90.80;;;;;;5043387;28;19936;-68
2023/05/31 09:51:29;;;;;;;;;;;20.90;83.90;;;;;;5026281;28;19925;-68
2023/05/31 09:54:26;;;;;;;;;;;21.00;86.50;;;;;;5024224;28;19934;-69
2023/05/31 10:03:11;;;;;;;;;;;21.20;85.00;;;;;;5146461;27;19912;-86
2023/05/31 10:06:09;;;;;;;;;;;21.40;82.30;;;;;;5131464;28;20118;-87
2023/05/31 10:14:47;;;;;;;;;;;21.50;85.50;;;;;;5108056;28;19916;-87
2023/05/31 10:20:56;;;;;;;;;;;21.70;85.20;;;;;;5136264;28;19963;-87
2023/05/31 10:34:50;;;;;;;;;;;22.40;82.80;;;;;;5123784;28;19923;-87
2023/05/31 10:37:21;;;;;;;;;;;22.50;82.50;;;;;;5124684;27;20262;-87
2023/05/31 10:40:06;;;;;;;;;;;22.60;83.40;;;;;;5124934;28;19969;-87
2023/05/31 10:43:04;;;;;;;;;;;22.70;80.50;;;;;;5114299;28;19951;-88
2023/05/31 10:45:45;;;;;;;;;;;22.80;76.40;;;;;;5124487;28;19980;-87
2023/05/31 10:51:40;;;;;;;;;;;22.70;77.80;;;;;;5110480;28;19924;-87
2023/05/31 10:57:25;;;;;;;;;;;22.90;79.60;;;;;;5103787;28;19924;-87
2023/05/31 11:00:07;;;;;;;;;;;23.00;76.40;;;;;;5118690;28;19967;-87
2023/05/31 11:03:18;;;;;;;;;;;23.10;78.80;;;;;;5112936;28;19920;-89
2023/05/31 11:06:17;;;;;;;;;;;23.30;78.80;;;;;;5116003;28;20127;-89
2023/05/31 11:14:51;;;;;;;;;;;23.50;75.80;;;;;;5107831;28;19920;-89
2023/05/31 11:20:40;;;;;;;;;;;23.80;74.10;;;;;;5100063;28;19923;-89
2023/05/31 11:23:42;;;;;;;;;;;24.00;75.60;;;;;;5097191;28;19920;-89
2023/05/31 11:27:00;;;;;;;;;;;24.20;76.40;;;;;;5106061;28;19920;-88
2023/05/31 11:35:43;;;;;;;;;;;24.60;72.60;;;;;;5088047;28;19921;-88
2023/05/31 11:41:07;;;;;;;;;;;24.50;70.90;;;;;;5093536;28;20162;-89
2023/05/31 11:52:12;;;;;;;;;;;24.70;69.50;;;;;;5076082;28;20201;-90
2023/05/31 11:58:23;;;;;;;;;;;24.60;69.00;;;;;;5108016;28;19984;-87
2023/05/31 12:03:48;;;;;;;;;;;24.60;68.20;;;;;;5088584;28;19924;-88
2023/05/31 12:06:32;;;;;;;;;;;24.70;68.90;;;;;;5097204;28;19955;-87
2023/05/31 12:09:23;;;;;;;;;;;24.70;70.10;;;;;;5084023;28;19928;-88
2023/05/31 12:12:11;;;;;;;;;;;24.60;70.80;;;;;;5109053;28;19942;-89
2023/05/31 12:28:57;;;;;;;;;;;25.50;66.50;;;;;;5061952;28;19920;-68
2023/05/31 12:31:24;;;;;;;;;;;25.70;68.70;;;;;;5063521;28;19929;-69
2023/05/31 12:34:00;;;;;;;;;;;25.80;66.80;;;;;;5052148;28;19959;-68
2023/05/31 12:36:27;;;;;;;;;;;25.90;67.80;;;;;;5027630;28;20204;-67
2023/05/31 12:38:55;;;;;;;;;;;26.00;68.80;;;;;;5024401;28;19921;-68
2023/05/31 12:41:23;;;;;;;;;;;26.00;68.60;;;;;;5021402;28;19925;-68
2023/05/31 12:43:49;;;;;;;;;;;26.30;70.00;;;;;;5023728;28;20204;-68
2023/05/31 12:46:20;;;;;;;;;;;26.60;66.70;;;;;;5038042;28;19953;-67
2023/05/31 12:48:47;;;;;;;;;;;26.70;66.40;;;;;;5043811;28;19987;-68
2023/05/31 12:51:14;;;;;;;;;;;26.60;66.30;;;;;;5043900;28;19988;-68
2023/05/31 12:53:40;;;;;;;;;;;26.60;64.80;;;;;;5043460;28;19925;-69
2023/05/31 12:56:07;;;;;;;;;;;26.60;65.50;;;;;;5042971;28;19984;-69
2023/05/31 12:58:35;;;;;;;;;;;26.70;66.60;;;;;;5024810;28;20228;-68
2023/05/31 13:01:01;;;;;;;;;;;26.70;66.50;;;;;;5022799;28;19992;-69
2023/05/31 13:03:29;;;;;;;;;;;27.00;69.00;;;;;;5023825;28;20256;-68
2023/05/31 13:05:56;;;;;;;;;;;27.10;68.00;;;;;;5022953;28;19922;-70
2023/05/31 13:08:23;;;;;;;;;;;27.00;65.10;;;;;;5023762;28;19968;-68
2023/05/31 13:10:49;;;;;;;;;;;27.00;62.60;;;;;;5021010;28;20194;-68
2023/05/31 13:13:16;;;;;;;;;;;27.00;64.00;;;;;;5023639;28;19988;-68
2023/05/31 13:15:43;;;;;;;;;;;27.10;65.10;;;;;;5022498;28;19921;-68
2023/05/31 13:18:09;;;;;;;;;;;27.30;64.50;;;;;;5029305;28;19952;-69
2023/05/31 13:20:37;;;;;;;;;;;27.50;64.70;;;;;;5025209;28;20283;-68
2023/05/31 13:23:06;;;;;;;;;;;27.40;62.00;;;;;;5023138;28;20495;-68
2023/05/31 13:25:33;;;;;;;;;;;27.20;62.70;;;;;;5022088;28;19921;-71
2023/05/31 13:27:59;;;;;;;;;;;27.00;63.00;;;;;;5046540;28;19959;-69
2023/05/31 13:30:26;;;;;;;;;;;27.10;62.50;;;;;;5062726;28;20283;-69
2023/05/31 13:32:54;;;;;;;;;;;27.00;60.80;;;;;;5062900;28;19920;-69
2023/05/31 13:35:20;;;;;;;;;;;27.10;62.70;;;;;;5061368;28;19933;-68
2023/05/31 13:37:48;;;;;;;;;;;27.20;61.30;;;;;;5062741;28;20007;-68
2023/05/31 13:40:15;;;;;;;;;;;27.00;61.20;;;;;;5062782;28;20398;-68
2023/05/31 13:42:41;;;;;;;;;;;26.80;62.00;;;;;;5062972;28;19996;-68
2023/05/31 13:45:09;;;;;;;;;;;27.00;63.50;;;;;;5052693;28;19921;-68
2023/05/31 13:47:36;;;;;;;;;;;27.30;62.70;;;;;;5042690;28;19921;-67
2023/05/31 13:50:03;;;;;;;;;;;27.50;62.70;;;;;;5042804;28;19921;-66
2023/05/31 13:52:29;;;;;;;;;;;27.70;61.90;;;;;;5042298;28;19927;-67
2023/05/31 13:54:57;;;;;;;;;;;27.60;62.50;;;;;;5041714;28;19956;-67
2023/05/31 13:57:24;;;;;;;;;;;27.50;61.60;;;;;;5042555;28;19952;-67
2023/05/31 13:59:51;;;;;;;;;;;27.60;63.60;;;;;;5042604;28;19972;-67
2023/05/31 14:02:18;;;;;;;;;;;27.70;64.20;;;;;;5042125;28;20159;-68
2023/05/31 14:04:45;;;;;;;;;;;27.80;65.30;;;;;;5040979;28;20380;-67
2023/05/31 14:07:11;;;;;;;;;;;28.10;65.40;;;;;;5042507;28;19967;-68
2023/05/31 14:09:40;;;;;;;;;;;28.20;65.00;;;;;;5042443;28;19980;-67
2023/05/31 14:12:08;;;;;;;;;;;28.20;64.30;;;;;;5042508;28;19921;-69
2023/05/31 14:14:35;;;;;;;;;;;28.20;64.60;;;;;;5042075;28;19921;-66
2023/05/31 14:17:02;;;;;;;;;;;28.20;64.40;;;;;;5041975;28;20257;-66
2023/05/31 14:19:29;;;;;;;;;;;28.20;63.40;;;;;;5041619;28;19921;-71
2023/05/31 14:21:55;;;;;;;;;;;27.90;63.10;;;;;;5042473;28;19971;-67
2023/05/31 14:24:22;;;;;;;;;;;27.80;63.50;;;;;;5041588;28;20176;-66
2023/05/31 14:26:49;;;;;;;;;;;28.00;64.00;;;;;;5041830;28;19925;-70
2023/05/31 14:29:17;;;;;;;;;;;27.90;62.00;;;;;;5042502;28;19928;-67
2023/05/31 14:31:44;;;;;;;;;;;27.90;62.70;;;;;;5042352;28;19921;-68
2023/05/31 14:34:10;;;;;;;;;;;28.00;63.40;;;;;;5028869;28;20180;-68
2023/05/31 14:36:37;;;;;;;;;;;28.10;63.00;;;;;;5042201;28;19983;-67
2023/05/31 14:39:04;;;;;;;;;;;28.00;62.90;;;;;;5041871;28;19959;-66
2023/05/31 14:41:31;;;;;;;;;;;28.10;63.40;;;;;;5024669;28;19928;-67
2023/05/31 14:43:57;;;;;;;;;;;28.20;62.20;;;;;;5022687;28;19988;-67
2023/05/31 14:46:25;;;;;;;;;;;28.10;62.40;;;;;;5040765;28;19953;-67
2023/05/31 14:48:53;;;;;;;;;;;27.70;62.80;;;;;;5044979;28;19992;-67
2023/05/31 14:51:20;;;;;;;;;;;27.50;62.20;;;;;;5045705;28;20141;-67
2023/05/31 14:53:47;;;;;;;;;;;27.50;61.80;;;;;;5046012;28;19927;-66
2023/05/31 14:56:13;;;;;;;;;;;27.30;63.00;;;;;;5045154;28;19992;-67
2023/05/31 14:58:40;;;;;;;;;;;27.40;62.90;;;;;;5028568;28;20197;-68
2023/05/31 15:01:07;;;;;;;;;;;27.60;62.50;;;;;;5042436;28;19929;-66
2023/05/31 15:03:34;;;;;;;;;;;27.40;60.70;;;;;;5045399;28;19960;-67
2023/05/31 15:06:01;;;;;;;;;;;27.30;62.70;;;;;;5045277;28;20024;-69
2023/05/31 15:08:29;;;;;;;;;;;27.60;62.40;;;;;;5045399;28;20153;-67
2023/05/31 15:10:56;;;;;;;;;;;27.70;61.60;;;;;;5045714;28;19921;-67
2023/05/31 15:13:23;;;;;;;;;;;27.70;60.40;;;;;;5045754;28;19959;-71
2023/05/31 15:15:50;;;;;;;;;;;27.80;62.20;;;;;;5038307;28;19984;-68
2023/05/31 15:18:17;;;;;;;;;;;27.70;61.10;;;;;;5034199;28;19922;-68
2023/05/31 15:20:45;;;;;;;;;;;27.50;63.40;;;;;;5045172;28;19921;-67
2023/05/31 15:23:11;;;;;;;;;;;27.50;62.90;;;;;;5042205;28;19921;-67
2023/05/31 15:25:38;;;;;;;;;;;27.70;62.40;;;;;;5039032;28;19935;-68
2023/05/31 15:28:05;;;;;;;;;;;27.60;60.70;;;;;;5040776;28;19965;-70
2023/05/31 15:30:31;;;;;;;;;;;27.40;60.70;;;;;;5025870;28;19921;-68
2023/05/31 15:32:58;;;;;;;;;;;27.40;63.10;;;;;;5025008;28;20279;-70
2023/05/31 15:35:25;;;;;;;;;;;27.20;62.40;;;;;;5028612;28;19968;-68
2023/05/31 15:37:53;;;;;;;;;;;27.10;61.70;;;;;;5044859;28;19928;-69
2023/05/31 15:40:19;;;;;;;;;;;27.10;61.10;;;;;;5045192;28;19988;-68
2023/05/31 15:42:46;;;;;;;;;;;27.30;61.90;;;;;;5045267;28;19992;-69
2023/05/31 15:45:13;;;;;;;;;;;27.40;61.60;;;;;;5044037;28;19992;-68
2023/05/31 15:47:39;;;;;;;;;;;27.40;61.70;;;;;;5045437;28;19920;-69
2023/05/31 15:50:06;;;;;;;;;;;27.50;62.00;;;;;;5044817;28;19925;-68
2023/05/31 15:52:33;;;;;;;;;;;27.70;61.10;;;;;;5061862;28;19948;-68
2023/05/31 15:55:01;;;;;;;;;;;27.60;60.60;;;;;;5063134;28;19967;-68
2023/05/31 15:57:27;;;;;;;;;;;27.40;60.80;;;;;;5043165;28;19952;-67
2023/05/31 15:59:54;;;;;;;;;;;27.20;61.60;;;;;;5044595;28;19953;-67
2023/05/31 16:02:21;;;;;;;;;;;27.00;62.40;;;;;;5044764;28;19921;-66
2023/05/31 16:04:48;;;;;;;;;;;27.00;62.70;;;;;;5043931;28;19944;-66
2023/05/31 16:07:14;;;;;;;;;;;27.00;61.50;;;;;;5045013;28;19980;-66
2023/05/31 16:09:41;;;;;;;;;;;27.00;60.30;;;;;;5044893;28;20110;-65
2023/05/31 16:12:09;;;;;;;;;;;26.80;60.70;;;;;;5025594;28;20237;-66
2023/05/31 16:14:36;;;;;;;;;;;26.70;61.10;;;;;;5024344;28;19988;-66
2023/05/31 16:17:03;;;;;;;;;;;26.70;61.50;;;;;;5024923;28;19996;-68
2023/05/31 16:19:29;;;;;;;;;;;26.70;61.30;;;;;;5032905;28;19920;-67
2023/05/31 16:21:56;;;;;;;;;;;26.80;61.40;;;;;;5044556;28;20255;-68
2023/05/31 16:24:23;;;;;;;;;;;26.70;62.20;;;;;;5044032;28;19957;-66
2023/05/31 16:26:50;;;;;;;;;;;26.60;62.30;;;;;;5043964;28;19988;-68
2023/05/31 16:29:18;;;;;;;;;;;26.60;60.30;;;;;;5039238;28;20222;-65
2023/05/31 16:31:45;;;;;;;;;;;26.50;61.50;;;;;;5026421;28;20001;-65
2023/05/31 16:34:11;;;;;;;;;;;26.50;60.60;;;;;;5043786;28;19996;-65
2023/05/31 16:36:38;;;;;;;;;;;26.30;60.80;;;;;;5041866;28;19984;-66
2023/05/31 16:39:07;;;;;;;;;;;26.20;61.90;;;;;;5036545;28;19921;-65
2023/05/31 16:41:34;;;;;;;;;;;26.20;61.00;;;;;;5043955;28;20131;-66
2023/05/31 16:44:00;;;;;;;;;;;26.20;62.70;;;;;;5043561;28;19921;-67
2023/05/31 16:46:28;;;;;;;;;;;26.30;60.90;;;;;;5043631;28;19992;-68
2023/05/31 16:48:55;;;;;;;;;;;26.20;61.60;;;;;;5041094;28;19921;-69
2023/05/31 16:51:22;;;;;;;;;;;26.00;61.80;;;;;;5024295;28;19960;-68
2023/05/31 16:53:49;;;;;;;;;;;26.00;61.80;;;;;;5021309;28;19992;-68
2023/05/31 16:56:16;;;;;;;;;;;26.10;61.90;;;;;;5023618;28;19984;-68
2023/05/31 16:58:43;;;;;;;;;;;26.20;61.70;;;;;;5027409;28;19939;-68
2023/05/31 17:01:09;;;;;;;;;;;26.30;62.00;;;;;;5031249;28;19988;-68
2023/05/31 17:03:37;;;;;;;;;;;26.40;63.60;;;;;;5032577;28;19921;-68
2023/05/31 17:06:04;;;;;;;;;;;26.50;61.00;;;;;;5040470;28;19986;-69
2023/05/31 17:08:30;;;;;;;;;;;26.50;61.80;;;;;;5041136;28;19921;-68
2023/05/31 17:10:57;;;;;;;;;;;26.60;61.80;;;;;;5042950;28;20275;-66
2023/05/31 17:13:25;;;;;;;;;;;26.50;62.10;;;;;;5040322;28;19921;-68
2023/05/31 17:15:51;;;;;;;;;;;26.40;62.50;;;;;;5041114;28;19983;-67
2023/05/31 17:18:18;;;;;;;;;;;26.20;62.80;;;;;;5042753;28;20004;-67
2023/05/31 17:20:46;;;;;;;;;;;26.20;63.20;;;;;;5042813;28;20288;-67
2023/05/31 17:23:13;;;;;;;;;;;26.00;63.30;;;;;;5043388;28;19928;-67
2023/05/31 17:25:39;;;;;;;;;;;25.90;62.60;;;;;;5042390;28;19968;-67
2023/05/31 17:28:06;;;;;;;;;;;25.70;63.40;;;;;;5043321;28;19952;-67
2023/05/31 17:30:32;;;;;;;;;;;25.60;62.50;;;;;;5043373;28;19984;-66
2023/05/31 17:33:00;;;;;;;;;;;25.50;63.30;;;;;;5041211;28;19964;-66
2023/05/31 17:35:27;;;;;;;;;;;25.60;63.60;;;;;;5039631;28;19927;-67
2023/05/31 17:37:55;;;;;;;;;;;25.60;64.90;;;;;;5043581;28;19988;-67
2023/05/31 17:40:22;;;;;;;;;;;25.60;64.50;;;;;;5043286;28;20213;-67
2023/05/31 17:42:49;;;;;;;;;;;25.60;63.70;;;;;;5043438;28;19972;-66
2023/05/31 17:45:16;;;;;;;;;;;25.70;64.70;;;;;;5042370;28;19922;-67
2023/05/31 17:47:43;;;;;;;;;;;25.70;65.50;;;;;;5043117;28;20151;-68
2023/05/31 17:50:10;;;;;;;;;;;25.60;64.50;;;;;;5043361;28;19929;-67
2023/05/31 17:52:37;;;;;;;;;;;25.60;64.50;;;;;;5043096;28;20268;-67
2023/05/31 17:55:05;;;;;;;;;;;25.60;64.30;;;;;;5042219;28;19952;-66
2023/05/31 17:57:32;;;;;;;;;;;25.40;63.80;;;;;;5043231;28;19928;-67
2023/05/31 17:59:59;;;;;;;;;;;25.20;64.40;;;;;;5043044;28;19984;-67
2023/05/31 18:02:25;;;;;;;;;;;25.10;64.80;;;;;;5042929;28;19952;-67
2023/05/31 18:04:52;;;;;;;;;;;25.00;65.00;;;;;;5041772;28;19988;-67
2023/05/31 18:07:18;;;;;;;;;;;24.90;63.90;;;;;;5042544;28;19988;-67
2023/05/31 18:09:45;;;;;;;;;;;24.80;64.40;;;;;;5042911;28;19925;-67
2023/05/31 18:12:13;;;;;;;;;;;24.80;65.10;;;;;;5043092;28;20198;-67
2023/05/31 18:14:40;;;;;;;;;;;24.80;64.70;;;;;;5042267;28;19984;-67
2023/05/31 18:17:06;;;;;;;;;;;24.80;64.80;;;;;;5042822;28;19963;-67
2023/05/31 18:19:34;;;;;;;;;;;24.70;65.20;;;;;;5043115;28;19963;-67
2023/05/31 18:22:01;;;;;;;;;;;24.70;65.00;;;;;;5043148;28;19963;-67
2023/05/31 18:24:27;;;;;;;;;;;24.60;65.00;;;;;;5045853;28;19921;-67
2023/05/31 18:26:55;;;;;;;;;;;24.50;66.00;;;;;;5046580;28;20048;-67
2023/05/31 18:29:23;;;;;;;;;;;24.30;65.80;;;;;;5046785;28;19921;-67
2023/05/31 18:31:50;;;;;;;;;;;24.20;66.50;;;;;;5046931;28;19988;-67
2023/05/31 18:34:17;;;;;;;;;;;24.10;66.60;;;;;;5045932;28;19989;-67
2023/05/31 18:36:43;;;;;;;;;;;24.00;66.60;;;;;;5046720;28;19963;-67
2023/05/31 18:39:12;;;;;;;;;;;23.90;66.40;;;;;;5046572;28;19921;-67
2023/05/31 18:41:39;;;;;;;;;;;23.80;66.60;;;;;;5046786;28;19920;-67
2023/05/31 18:44:05;;;;;;;;;;;23.60;66.50;;;;;;5045684;28;20008;-67
2023/05/31 18:46:33;;;;;;;;;;;23.50;66.80;;;;;;5046541;28;19967;-68
2023/05/31 18:49:00;;;;;;;;;;;23.40;67.30;;;;;;5046715;28;19928;-67
2023/05/31 18:51:27;;;;;;;;;;;23.30;67.30;;;;;;5046645;28;19988;-67
2023/05/31 18:53:53;;;;;;;;;;;23.30;67.30;;;;;;5046089;28;20016;-67
2023/05/31 18:56:20;;;;;;;;;;;23.20;67.00;;;;;;5045737;28;19991;-67
2023/05/31 18:58:47;;;;;;;;;;;23.10;66.70;;;;;;5046531;28;19959;-67
2023/05/31 19:01:15;;;;;;;;;;;23.10;66.80;;;;;;5043972;28;19988;-67
2023/05/31 19:03:43;;;;;;;;;;;23.00;67.30;;;;;;5046352;28;19921;-67
2023/05/31 19:06:10;;;;;;;;;;;23.00;67.20;;;;;;5045196;28;19921;-68
2023/05/31 19:08:36;;;;;;;;;;;22.90;67.30;;;;;;5046419;28;19988;-68
2023/05/31 19:11:03;;;;;;;;;;;22.80;66.90;;;;;;5046329;28;19988;-68
2023/05/31 19:13:30;;;;;;;;;;;22.70;67.20;;;;;;5045950;28;19925;-67
2023/05/31 19:15:57;;;;;;;;;;;22.70;67.40;;;;;;5042262;28;19921;-67
2023/05/31 19:18:23;;;;;;;;;;;22.60;67.60;;;;;;5046151;28;19927;-67
2023/05/31 19:20:51;;;;;;;;;;;22.50;67.70;;;;;;5046117;28;19963;-68
2023/05/31 19:23:18;;;;;;;;;;;22.40;68.50;;;;;;5046045;28;19921;-68
2023/05/31 19:25:45;;;;;;;;;;;22.40;68.00;;;;;;5045029;28;19971;-69
2023/05/31 19:28:11;;;;;;;;;;;22.40;67.60;;;;;;5045692;28;19925;-69
2023/05/31 19:30:38;;;;;;;;;;;22.30;68.50;;;;;;5045955;28;19984;-68
2023/05/31 19:33:04;;;;;;;;;;;22.20;69.40;;;;;;5045650;28;20220;-69
2023/05/31 19:35:31;;;;;;;;;;;22.20;70.30;;;;;;5041708;28;19983;-69
2023/05/31 19:38:00;;;;;;;;;;;22.20;71.20;;;;;;5041326;28;19921;-68
2023/05/31 19:40:27;;;;;;;;;;;22.20;72.20;;;;;;5045897;28;19921;-69
2023/05/31 19:42:56;;;;;;;;;;;22.30;72.90;;;;;;5045747;28;19980;-68
2023/05/31 19:45:22;;;;;;;;;;;22.30;73.10;;;;;;5044602;28;20204;-68
2023/05/31 19:47:50;;;;;;;;;;;22.20;73.30;;;;;;5043044;28;19927;-69
2023/05/31 19:50:17;;;;;;;;;;;22.10;74.20;;;;;;5042399;28;20561;-68
2023/05/31 19:52:45;;;;;;;;;;;22.00;75.10;;;;;;5045390;28;20222;-68
2023/05/31 19:55:13;;;;;;;;;;;21.90;75.40;;;;;;5044495;28;19984;-68
2023/05/31 19:57:40;;;;;;;;;;;21.80;75.70;;;;;;5045560;28;19921;-68
2023/05/31 20:00:07;;;;;;;;;;;21.60;76.40;;;;;;5045357;28;19939;-68
2023/05/31 20:02:34;;;;;;;;;;;21.50;76.30;;;;;;5045142;28;19963;-69
2023/05/31 20:05:02;;;;;;;;;;;21.30;76.70;;;;;;5041350;28;19975;-69
2023/05/31 20:07:28;;;;;;;;;;;21.20;77.20;;;;;;5045395;28;20068;-69
2023/05/31 20:09:55;;;;;;;;;;;21.10;77.80;;;;;;5044735;28;19980;-69
2023/05/31 20:12:23;;;;;;;;;;;21.00;78.50;;;;;;5044642;28;19967;-66
2023/05/31 20:14:50;;;;;;;;;;;21.00;78.70;;;;;;5036120;28;19957;-68
2023/05/31 20:17:17;;;;;;;;;;;20.90;79.50;;;;;;5030007;28;19984;-68
2023/05/31 20:19:43;;;;;;;;;;;20.80;79.80;;;;;;5031760;28;20300;-69
2023/05/31 20:22:10;;;;;;;;;;;20.70;79.90;;;;;;5024894;28;19922;-69
2023/05/31 20:24:37;;;;;;;;;;;20.70;80.10;;;;;;5041037;28;19988;-68
2023/05/31 20:27:03;;;;;;;;;;;20.60;80.40;;;;;;5038979;28;20006;-68
2023/05/31 20:29:32;;;;;;;;;;;20.50;81.10;;;;;;5044668;28;20209;-68
2023/05/31 20:31:58;;;;;;;;;;;20.40;81.90;;;;;;5040967;28;20209;-68
2023/05/31 20:34:27;;;;;;;;;;;20.40;82.50;;;;;;5044071;28;19984;-68
2023/05/31 20:36:54;;;;;;;;;;;20.30;82.60;;;;;;5042863;28;19921;-69
2023/05/31 20:39:21;;;;;;;;;;;20.20;82.80;;;;;;5035418;28;19956;-68
2023/05/31 20:41:47;;;;;;;;;;;20.20;82.70;;;;;;5038649;28;19968;-69
2023/05/31 20:44:14;;;;;;;;;;;20.10;82.90;;;;;;5043715;28;19984;-70
2023/05/31 20:46:42;;;;;;;;;;;20.10;83.60;;;;;;5043324;28;19997;-69
2023/05/31 20:49:08;;;;;;;;;;;20.00;84.30;;;;;;5044072;28;20264;-69
2023/05/31 20:51:35;;;;;;;;;;;20.00;85.00;;;;;;5044066;28;19921;-69
2023/05/31 20:54:02;;;;;;;;;;;20.00;85.10;;;;;;5043398;28;19989;-69
2023/05/31 20:56:28;;;;;;;;;;;19.90;84.80;;;;;;5038915;28;19937;-69
2023/05/31 20:58:55;;;;;;;;;;;19.90;85.30;;;;;;5044202;28;19990;-69
2023/05/31 21:01:27;;;;;;;;;;;19.80;85.00;;;;;;5040826;28;20176;-69
2023/05/31 21:03:56;;;;;;;;;;;19.60;85.00;;;;;;5043748;28;19921;-68
2023/05/31 21:06:23;;;;;;;;;;;19.40;84.80;;;;;;5043605;28;19921;-69
2023/05/31 21:08:50;;;;;;;;;;;19.20;85.20;;;;;;5029710;28;20261;-69
2023/05/31 21:11:16;;;;;;;;;;;19.20;85.90;;;;;;5023353;28;19975;-69
2023/05/31 21:13:43;;;;;;;;;;;19.00;86.40;;;;;;5023714;28;19984;-69
2023/05/31 21:16:09;;;;;;;;;;;18.90;86.70;;;;;;5023328;28;19957;-69
2023/05/31 21:18:36;;;;;;;;;;;18.80;86.50;;;;;;5022194;28;20284;-69
2023/05/31 21:21:04;;;;;;;;;;;18.40;87.90;;;;;;5023487;28;19984;-69
2023/05/31 21:23:31;;;;;;;;;;;18.20;89.10;;;;;;5033639;28;19929;-69
2023/05/31 21:25:59;;;;;;;;;;;18.00;89.60;;;;;;5042834;28;19927;-68
2023/05/31 21:28:25;;;;;;;;;;;17.90;90.00;;;;;;5043455;28;19960;-68
2023/05/31 21:30:52;;;;;;;;;;;17.90;89.90;;;;;;5033713;28;19989;-69
2023/05/31 21:33:18;;;;;;;;;;;17.90;90.10;;;;;;5037277;28;19964;-69
2023/05/31 21:35:45;;;;;;;;;;;17.80;90.20;;;;;;5026114;28;19964;-68
2023/05/31 21:38:13;;;;;;;;;;;17.80;90.40;;;;;;5063333;28;19924;-69
2023/05/31 21:40:40;;;;;;;;;;;17.70;90.70;;;;;;5023334;28;20209;-70